Terminal Aerodrome Forecast
Issued by NWS

Home | Current Version | Previous Version | Text Only | Print | Product List | Glossary On
Versions: 1 2 3 4 5 6 7 8 9 10 11 12 13 14 15 16 17 18 19 20 21 22 23 24 25 26 27 28 29 30 31 32 33 34 35 36 37 38 39
211
FTUS41 KOKX 260228 AAA
TAFTEB
TAF AMD
KTEB 260228Z 2602/2706 VRB03KT 1SM -DZ BR OVC003
      TEMPO 2602/2606 1/2SM -DZ FG OVC002
     FM260800 30006KT 4SM BR SCT005 OVC045
     FM261000 29008KT P6SM SCT250
     FM261300 28011G18KT P6SM SCT250
     FM262100 26010G17KT P6SM FEW250
     FM262300 27008KT P6SM SKC
     FM270200 VRB03KT P6SM SKC=

USA.gov is the U.S. government's official web portal to all federal, state and local government web resources and services.